Time;durP1;ratioP1;P1;durP2;ratioP2;P2;SDS_P1;SDS_P2;PMS_P1;PMS_P2;Temp;Humidity;BMP_temperature;BMP_pressure;BME280_temperature;BME280_humidity;BME280_pressure;Samples;Min_cycle;Max_cycle;Signal;HPM_P1;HPM_P2
2021/03/20 00:00:52;;;;;;;12.77;7.77;;;0.60;99.90;;;;;;5052700;28;20772;-61
2021/03/20 00:03:19;;;;;;;10.47;7.10;;;0.60;99.90;;;;;;5052498;28;20527;-62
2021/03/20 00:05:46;;;;;;;12.63;7.30;;;0.60;99.90;;;;;;5052386;28;20241;-62
2021/03/20 00:08:16;;;;;;;10.30;6.27;;;0.60;99.90;;;;;;5052780;28;20335;-62
2021/03/20 00:10:43;;;;;;;10.07;6.33;;;0.60;99.90;;;;;;5052190;28;20205;-62
2021/03/20 00:13:09;;;;;;;7.63;5.70;;;0.50;99.90;;;;;;5052362;28;20223;-62
2021/03/20 00:15:36;;;;;;;8.30;5.93;;;0.50;99.90;;;;;;5052514;28;20225;-61
2021/03/20 00:18:02;;;;;;;8.33;6.30;;;0.50;99.90;;;;;;5051276;28;20206;-62
2021/03/20 00:20:30;;;;;;;11.33;6.30;;;0.50;99.90;;;;;;5052316;28;20775;-62
2021/03/20 00:22:57;;;;;;;10.33;6.43;;;0.50;99.90;;;;;;5052380;28;20206;-62
2021/03/20 00:25:25;;;;;;;8.60;6.10;;;0.50;99.90;;;;;;5052255;28;20228;-62
2021/03/20 00:27:51;;;;;;;7.77;5.67;;;0.50;99.90;;;;;;5052437;28;20218;-62
2021/03/20 00:30:19;;;;;;;8.43;6.00;;;0.50;99.90;;;;;;5052365;28;20624;-62
2021/03/20 00:32:46;;;;;;;10.30;6.90;;;0.40;99.90;;;;;;5052432;28;20205;-61
2021/03/20 00:35:13;;;;;;;9.13;6.43;;;0.40;99.90;;;;;;5052426;28;20225;-62
2021/03/20 00:37:39;;;;;;;9.20;6.70;;;0.40;99.90;;;;;;5052427;28;20221;-62
2021/03/20 00:40:09;;;;;;;9.37;5.83;;;0.30;99.90;;;;;;5051916;28;20226;-62
2021/03/20 00:42:36;;;;;;;9.80;6.37;;;0.30;99.90;;;;;;5051427;28;20275;-62
2021/03/20 00:45:03;;;;;;;9.63;6.40;;;0.30;99.90;;;;;;5051789;28;20234;-62
2021/03/20 00:47:29;;;;;;;11.10;7.60;;;0.30;99.90;;;;;;5052419;28;20210;-61
2021/03/20 00:49:56;;;;;;;8.40;6.53;;;0.30;99.90;;;;;;5051885;28;20206;-61
2021/03/20 00:52:22;;;;;;;12.27;8.50;;;0.30;99.90;;;;;;5051974;28;20209;-61
2021/03/20 00:54:48;;;;;;;11.77;8.03;;;0.30;99.90;;;;;;5052080;28;20225;-62
2021/03/20 00:57:14;;;;;;;11.30;7.70;;;0.20;99.90;;;;;;5051687;28;20206;-62
2021/03/20 00:59:41;;;;;;;11.17;7.60;;;0.10;99.90;;;;;;5051374;28;20209;-62
2021/03/20 01:02:07;;;;;;;12.57;8.00;;;0.10;99.90;;;;;;5051537;28;20226;-62
2021/03/20 01:04:34;;;;;;;13.37;8.53;;;0.00;99.90;;;;;;5051040;28;20657;-62
2021/03/20 01:07:00;;;;;;;11.53;7.87;;;0.00;99.90;;;;;;5051431;28;20566;-62
2021/03/20 01:09:27;;;;;;;12.33;8.13;;;0.00;99.90;;;;;;5051174;28;20225;-62
2021/03/20 01:11:54;;;;;;;11.57;7.80;;;0.00;99.90;;;;;;5051155;28;20240;-62
2021/03/20 01:14:20;;;;;;;10.90;7.70;;;0.00;99.90;;;;;;5051043;28;20229;-62
2021/03/20 01:16:47;;;;;;;12.07;7.57;;;0.00;99.90;;;;;;5051105;28;20210;-62
2021/03/20 01:19:13;;;;;;;11.77;8.03;;;0.00;99.90;;;;;;5051093;28;20210;-62
2021/03/20 01:21:39;;;;;;;11.13;7.87;;;0.00;99.90;;;;;;5050989;28;20252;-63
2021/03/20 01:24:07;;;;;;;13.53;8.50;;;0.00;99.90;;;;;;5050879;28;20225;-62
2021/03/20 01:26:33;;;;;;;12.33;8.47;;;0.10;99.90;;;;;;5050985;28;20206;-62
2021/03/20 01:28:59;;;;;;;13.00;8.70;;;0.10;99.90;;;;;;5053621;28;20681;-61
2021/03/20 01:31:25;;;;;;;11.40;7.33;;;0.10;99.90;;;;;;5055189;28;20212;-62
2021/03/20 01:33:52;;;;;;;9.23;6.37;;;0.10;99.90;;;;;;5055097;28;20498;-62
2021/03/20 01:36:19;;;;;;;7.13;5.27;;;0.20;99.90;;;;;;5055070;28;20216;-61
2021/03/20 01:38:45;;;;;;;8.27;5.60;;;0.20;99.90;;;;;;5054926;28;20209;-62
2021/03/20 01:41:15;;;;;;;8.97;5.77;;;0.20;99.90;;;;;;5054594;28;20221;-62
2021/03/20 01:43:41;;;;;;;9.87;6.03;;;0.30;99.90;;;;;;5055128;28;20209;-62
2021/03/20 01:46:40;;;;;;;8.03;5.90;;;0.50;99.90;;;;;;5055037;28;20216;-62
2021/03/20 01:49:22;;;;;;;7.80;5.70;;;0.60;99.90;;;;;;5055173;28;20209;-61
2021/03/20 01:52:03;;;;;;;9.03;5.80;;;0.70;99.90;;;;;;5054658;28;20213;-62
2021/03/20 01:54:37;;;;;;;8.90;6.40;;;0.90;99.90;;;;;;5054318;28;20351;-62
2021/03/20 01:57:04;;;;;;;12.07;7.07;;;1.00;99.90;;;;;;5054445;28;20288;-62
2021/03/20 01:59:31;;;;;;;9.73;6.40;;;1.20;99.90;;;;;;5054134;28;20213;-62
2021/03/20 02:01:58;;;;;;;10.03;6.33;;;1.40;99.90;;;;;;5054417;28;20228;-61
2021/03/20 02:04:25;;;;;;;10.63;6.90;;;1.50;99.90;;;;;;5054470;28;20233;-62
2021/03/20 02:06:51;;;;;;;9.57;6.93;;;1.70;99.90;;;;;;5054777;28;20292;-63
2021/03/20 02:09:18;;;;;;;9.93;7.00;;;1.70;99.90;;;;;;5054075;28;20202;-62
2021/03/20 02:11:48;;;;;;;9.90;5.80;;;1.80;99.90;;;;;;5054220;28;20688;-62
2021/03/20 02:14:25;;;;;;;9.90;5.80;;;1.70;99.90;;;;;;5054241;28;20229;-62
2021/03/20 02:17:00;;;;;;;10.17;6.67;;;1.70;99.90;;;;;;5054208;28;20205;-62
2021/03/20 02:19:59;;;;;;;12.00;7.33;;;1.80;99.90;;;;;;5053971;28;20600;-62
2021/03/20 02:22:35;;;;;;;10.00;7.47;;;1.80;99.90;;;;;;5053875;28;20201;-62
2021/03/20 02:25:42;;;;;;;10.57;7.13;;;1.70;99.90;;;;;;5053351;28;20732;-63
2021/03/20 02:28:42;;;;;;;9.73;7.27;;;1.70;99.90;;;;;;5053799;28;20201;-62
2021/03/20 02:31:30;;;;;;;10.10;6.93;;;1.80;99.90;;;;;;5043173;28;20206;-62
2021/03/20 02:34:08;;;;;;;11.33;7.20;;;1.90;99.90;;;;;;5050679;28;20290;-62
2021/03/20 02:36:39;;;;;;;10.80;6.97;;;1.90;99.90;;;;;;5053588;28;20217;-61
2021/03/20 02:39:16;;;;;;;10.40;8.07;;;2.00;99.90;;;;;;5052949;28;20214;-62
2021/03/20 02:41:49;;;;;;;12.67;8.07;;;2.10;99.90;;;;;;5053211;28;20233;-62
2021/03/20 02:44:20;;;;;;;12.57;7.73;;;2.10;99.90;;;;;;5053442;28;20233;-63
2021/03/20 02:46:51;;;;;;;11.57;6.93;;;2.00;99.90;;;;;;5053858;28;20229;-62
2021/03/20 02:49:26;;;;;;;10.17;6.97;;;2.00;99.90;;;;;;5053603;28;20213;-62
2021/03/20 02:51:57;;;;;;;10.67;7.37;;;2.10;99.90;;;;;;5053038;28;20239;-61
2021/03/20 02:54:28;;;;;;;9.67;7.07;;;2.20;99.90;;;;;;5053145;28;20221;-62
2021/03/20 02:56:59;;;;;;;12.97;7.03;;;2.20;99.90;;;;;;5053192;28;20240;-63
2021/03/20 02:59:29;;;;;;;10.93;6.50;;;2.20;99.90;;;;;;5052956;28;20224;-62
2021/03/20 03:01:59;;;;;;;9.87;6.80;;;2.30;99.90;;;;;;5053228;28;20228;-63
2021/03/20 03:04:32;;;;;;;9.27;6.80;;;2.30;99.90;;;;;;5053490;28;20237;-62
2021/03/20 03:07:03;;;;;;;9.60;7.03;;;2.40;99.90;;;;;;5053211;28;20682;-62
2021/03/20 03:09:35;;;;;;;8.57;6.57;;;2.40;99.90;;;;;;5053243;28;20296;-62
2021/03/20 03:12:05;;;;;;;9.50;6.53;;;2.40;99.90;;;;;;5053145;28;20686;-62
2021/03/20 03:14:36;;;;;;;11.90;7.23;;;2.30;99.90;;;;;;5052930;28;20608;-62
2021/03/20 03:17:04;;;;;;;10.50;7.77;;;2.40;99.90;;;;;;5052947;28;20206;-62
2021/03/20 03:19:37;;;;;;;10.77;7.17;;;2.30;99.90;;;;;;5052929;28;20699;-62
2021/03/20 03:22:09;;;;;;;10.03;7.10;;;2.30;99.90;;;;;;5053532;28;20225;-63
2021/03/20 03:24:39;;;;;;;8.20;6.50;;;2.30;99.90;;;;;;5052825;28;20232;-63
2021/03/20 03:27:08;;;;;;;8.87;7.07;;;2.30;99.90;;;;;;5053147;28;20263;-63
2021/03/20 03:29:36;;;;;;;9.30;6.63;;;2.30;99.90;;;;;;5052665;28;20263;-62
2021/03/20 03:32:13;;;;;;;8.00;5.77;;;2.30;99.90;;;;;;5053138;28;20260;-62
2021/03/20 03:34:48;;;;;;;9.03;6.60;;;2.20;99.90;;;;;;5053125;28;20229;-62
2021/03/20 03:37:17;;;;;;;8.03;6.07;;;2.20;99.90;;;;;;5052823;28;20614;-62
2021/03/20 03:39:48;;;;;;;9.33;5.97;;;2.20;99.90;;;;;;5052547;28;20212;-62
2021/03/20 03:42:17;;;;;;;8.77;6.20;;;2.20;99.90;;;;;;5052279;28;20225;-62
2021/03/20 03:44:44;;;;;;;8.83;6.03;;;2.10;99.90;;;;;;5052023;28;20230;-63
2021/03/20 03:47:14;;;;;;;6.67;5.30;;;2.10;99.90;;;;;;5052411;28;20213;-62
2021/03/20 03:49:40;;;;;;;7.53;5.77;;;1.90;99.90;;;;;;5052168;28;20205;-62
2021/03/20 03:52:09;;;;;;;9.43;5.63;;;1.90;99.90;;;;;;5051879;28;20205;-62
2021/03/20 03:54:35;;;;;;;9.73;6.17;;;1.80;99.90;;;;;;5051946;28;20276;-63
2021/03/20 03:57:25;;;;;;;8.27;5.60;;;1.80;99.90;;;;;;5052466;28;20206;-63
2021/03/20 04:00:09;;;;;;;8.90;6.00;;;1.80;99.90;;;;;;5052345;28;20607;-62
2021/03/20 04:02:50;;;;;;;7.43;6.00;;;1.80;99.90;;;;;;5051970;28;20229;-62
2021/03/20 04:05:24;;;;;;;10.80;6.77;;;1.80;99.90;;;;;;5051681;28;20656;-63
2021/03/20 04:08:01;;;;;;;8.43;6.20;;;1.70;99.90;;;;;;5051788;28;20209;-62
2021/03/20 04:10:34;;;;;;;8.77;6.37;;;1.70;99.90;;;;;;5051927;28;20181;-63
2021/03/20 04:13:07;;;;;;;9.00;6.20;;;1.60;99.90;;;;;;5052231;28;20212;-63
2021/03/20 04:15:46;;;;;;;9.10;6.57;;;1.60;99.90;;;;;;5051628;28;20233;-63
2021/03/20 04:18:19;;;;;;;9.13;6.90;;;1.50;99.90;;;;;;5052432;28;20201;-62
2021/03/20 04:20:49;;;;;;;11.63;6.67;;;1.50;99.90;;;;;;5051861;28;20217;-63
2021/03/20 04:23:22;;;;;;;10.27;6.97;;;1.40;99.90;;;;;;5052057;28;20206;-62
2021/03/20 04:25:55;;;;;;;9.30;7.30;;;1.30;99.90;;;;;;5051864;28;20236;-63
2021/03/20 04:28:29;;;;;;;9.53;6.90;;;1.30;99.90;;;;;;5051885;28;20205;-62
2021/03/20 04:31:04;;;;;;;9.00;6.97;;;1.30;99.90;;;;;;5051880;28;20255;-63
2021/03/20 04:33:37;;;;;;;9.37;7.17;;;1.20;99.90;;;;;;5051469;28;20205;-63
2021/03/20 04:36:07;;;;;;;9.97;7.10;;;1.20;99.90;;;;;;5051649;28;20209;-62
2021/03/20 04:38:35;;;;;;;12.43;6.87;;;1.20;99.90;;;;;;5051767;28;20193;-62
2021/03/20 04:41:04;;;;;;;9.50;6.90;;;1.10;99.90;;;;;;5051768;28;20237;-62
2021/03/20 04:43:34;;;;;;;10.77;6.20;;;1.10;99.90;;;;;;5051491;28;20229;-62
2021/03/20 04:46:03;;;;;;;10.03;6.77;;;1.10;99.90;;;;;;5051645;28;20212;-62
2021/03/20 04:48:32;;;;;;;8.90;6.17;;;1.00;99.90;;;;;;5051340;28;20209;-62
2021/03/20 04:51:01;;;;;;;8.93;6.43;;;0.90;99.90;;;;;;5051398;28;20204;-62
2021/03/20 04:53:28;;;;;;;7.63;5.80;;;0.80;99.90;;;;;;5051863;28;20209;-63
2021/03/20 04:56:02;;;;;;;8.43;6.20;;;0.70;99.90;;;;;;5052171;28;20201;-62
2021/03/20 04:58:40;;;;;;;8.93;6.23;;;0.60;99.90;;;;;;5053048;28;20213;-63
2021/03/20 05:01:19;;;;;;;7.13;6.03;;;0.60;99.90;;;;;;5051990;28;20602;-62
2021/03/20 05:03:47;;;;;;;8.30;5.93;;;0.70;99.90;;;;;;5056514;28;20311;-62
2021/03/20 05:06:17;;;;;;;8.90;6.73;;;0.70;99.90;;;;;;5058415;28;20673;-62
2021/03/20 05:08:45;;;;;;;12.63;5.67;;;0.80;99.90;;;;;;5058065;28;20708;-63
2021/03/20 05:11:22;;;;;;;6.73;5.60;;;0.80;99.90;;;;;;5058129;28;20613;-62
2021/03/20 05:13:54;;;;;;;9.43;5.47;;;0.90;99.90;;;;;;5058019;28;20751;-63
2021/03/20 05:16:34;;;;;;;7.33;5.87;;;0.90;99.90;;;;;;5058663;28;20205;-62
2021/03/20 05:19:00;;;;;;;6.07;5.00;;;0.80;99.90;;;;;;5058101;28;20468;-63
2021/03/20 05:21:28;;;;;;;6.80;5.00;;;0.90;99.90;;;;;;5057913;28;20228;-62
2021/03/20 05:23:55;;;;;;;8.33;4.50;;;0.90;99.90;;;;;;5057826;28;20221;-63
2021/03/20 05:26:23;;;;;;;6.17;4.83;;;1.00;99.90;;;;;;5057591;28;20742;-63
2021/03/20 05:28:49;;;;;;;6.93;4.73;;;1.00;99.90;;;;;;5057781;28;20213;-63
2021/03/20 05:31:16;;;;;;;6.03;4.57;;;1.10;99.90;;;;;;5057865;28;20201;-62
2021/03/20 05:33:45;;;;;;;5.83;4.80;;;1.30;99.90;;;;;;5057660;28;20217;-62
2021/03/20 05:36:11;;;;;;;19.80;11.23;;;1.30;99.90;;;;;;5057814;28;20263;-63
2021/03/20 05:38:39;;;;;;;5.37;4.37;;;1.40;99.90;;;;;;5057499;28;20217;-62
2021/03/20 05:41:17;;;;;;;4.50;4.00;;;1.50;99.90;;;;;;5057505;28;20697;-62
2021/03/20 05:43:50;;;;;;;4.50;3.63;;;1.50;99.90;;;;;;5057691;28;20275;-63
2021/03/20 05:46:32;;;;;;;4.87;3.90;;;1.50;99.90;;;;;;5057649;28;20208;-62
2021/03/20 05:49:08;;;;;;;4.70;3.67;;;1.50;99.90;;;;;;5057785;28;20240;-62
2021/03/20 05:51:48;;;;;;;7.43;4.00;;;1.60;99.90;;;;;;5057613;28;20205;-62
2021/03/20 05:54:29;;;;;;;5.83;3.90;;;1.60;99.90;;;;;;5057431;28;20232;-62
2021/03/20 05:57:08;;;;;;;4.33;3.47;;;1.80;99.90;;;;;;5057493;28;20209;-62
2021/03/20 05:59:46;;;;;;;3.93;3.20;;;1.80;99.90;;;;;;5057341;28;20209;-63
2021/03/20 06:02:31;;;;;;;5.13;3.67;;;1.70;99.90;;;;;;5057499;28;20275;-62
2021/03/20 06:05:06;;;;;;;6.87;5.00;;;1.70;99.90;;;;;;5057558;28;20225;-63
2021/03/20 06:07:53;;;;;;;7.37;5.53;;;1.80;99.90;;;;;;5057831;28;20252;-63
2021/03/20 06:10:39;;;;;;;11.50;8.60;;;2.10;99.90;;;;;;5057904;28;20214;-62
2021/03/20 06:13:23;;;;;;;14.13;9.67;;;2.20;99.90;;;;;;5057524;28;20231;-62
2021/03/20 06:16:05;;;;;;;18.17;11.53;;;2.40;99.90;;;;;;5054548;28;20229;-62
2021/03/20 06:19:00;;;;;;;26.93;18.80;;;2.60;99.90;;;;;;5054010;28;20216;-63
2021/03/20 06:21:37;;;;;;;10.37;6.70;;;2.80;99.90;;;;;;5054107;28;20271;-63
2021/03/20 06:24:42;;;;;;;13.87;8.50;;;2.90;99.80;;;;;;5053999;28;20712;-63
2021/03/20 06:27:11;;;;;;;8.33;5.27;;;3.10;99.10;;;;;;5041178;28;20209;-63
2021/03/20 06:29:46;;;;;;;7.13;5.00;;;3.20;98.60;;;;;;5053994;28;20213;-62
2021/03/20 06:32:21;;;;;;;4.90;3.70;;;3.20;98.50;;;;;;5053851;28;20228;-63
2021/03/20 06:34:57;;;;;;;5.10;3.10;;;3.40;98.70;;;;;;5053586;28;20225;-63
2021/03/20 06:37:28;;;;;;;10.53;5.97;;;3.30;98.00;;;;;;5053781;28;20205;-63
2021/03/20 06:40:03;;;;;;;3.57;3.10;;;3.30;98.10;;;;;;5053591;28;20240;-63
2021/03/20 06:42:32;;;;;;;8.13;5.17;;;3.30;97.80;;;;;;5053712;28;20225;-63
2021/03/20 06:45:02;;;;;;;4.47;2.90;;;3.40;97.90;;;;;;5053757;28;20372;-63
2021/03/20 06:47:31;;;;;;;3.10;2.53;;;3.50;97.20;;;;;;5054309;28;20538;-62
2021/03/20 06:50:00;;;;;;;3.00;2.57;;;3.60;96.90;;;;;;5054778;28;20210;-63
2021/03/20 06:52:29;;;;;;;3.83;2.77;;;3.50;96.60;;;;;;5054341;28;20205;-63
2021/03/20 06:54:59;;;;;;;4.17;2.77;;;3.60;96.90;;;;;;5053619;28;20230;-62
2021/03/20 06:57:26;;;;;;;3.27;2.50;;;3.60;96.60;;;;;;5053427;28;20213;-62
2021/03/20 06:59:53;;;;;;;5.13;2.63;;;3.50;96.20;;;;;;5053030;28;20202;-62
2021/03/20 07:02:30;;;;;;;3.63;2.60;;;3.50;96.40;;;;;;5053090;28;20615;-63
2021/03/20 07:05:11;;;;;;;3.83;2.70;;;3.60;96.50;;;;;;5052969;28;20235;-62
2021/03/20 07:07:48;;;;;;;4.30;2.80;;;3.90;96.30;;;;;;5053032;28;20209;-62
2021/03/20 07:10:34;;;;;;;3.73;2.80;;;4.10;95.40;;;;;;5053061;28;20673;-63
2021/03/20 07:13:20;;;;;;;5.57;3.63;;;4.10;95.60;;;;;;5050437;28;20201;-63
2021/03/20 07:16:01;;;;;;;4.47;2.60;;;4.40;95.30;;;;;;5053061;28;20232;-62
2021/03/20 07:18:43;;;;;;;4.50;2.77;;;4.60;94.30;;;;;;5053171;28;20669;-63
2021/03/20 07:21:28;;;;;;;3.27;2.80;;;4.50;94.30;;;;;;5053167;28;20234;-62
2021/03/20 07:23:57;;;;;;;3.00;2.60;;;4.40;94.20;;;;;;5053225;28;20229;-62
2021/03/20 07:26:24;;;;;;;2.87;2.57;;;4.50;94.10;;;;;;5053483;28;20206;-63
2021/03/20 07:28:52;;;;;;;5.10;2.93;;;4.50;94.30;;;;;;5054072;28;20259;-63
2021/03/20 07:31:19;;;;;;;3.20;2.70;;;4.70;94.00;;;;;;5053261;28;20205;-63
2021/03/20 07:33:48;;;;;;;3.37;2.73;;;5.00;92.90;;;;;;5052769;28;20713;-63
2021/03/20 07:36:32;;;;;;;3.47;2.60;;;5.50;92.70;;;;;;5053673;28;20210;-62
2021/03/20 07:39:11;;;;;;;2.90;2.60;;;5.70;91.80;;;;;;5054088;28;20210;-62
2021/03/20 07:41:53;;;;;;;4.60;2.60;;;6.30;90.90;;;;;;5053799;28;20493;-63
2021/03/20 07:44:20;;;;;;;3.53;2.77;;;6.70;90.30;;;;;;5054630;28;20728;-63
2021/03/20 07:46:47;;;;;;;5.10;2.80;;;7.40;87.20;;;;;;5054420;28;20686;-63
2021/03/20 07:49:27;;;;;;;3.10;2.60;;;8.00;84.80;;;;;;5053891;28;20239;-64
2021/03/20 07:51:56;;;;;;;3.07;2.77;;;8.80;79.70;;;;;;5053942;28;20197;-64
2021/03/20 07:54:27;;;;;;;4.00;2.40;;;9.10;76.80;;;;;;5052540;28;20614;-64
2021/03/20 07:56:54;;;;;;;4.63;2.10;;;10.20;73.20;;;;;;5052293;28;20735;-64
2021/03/20 07:59:26;;;;;;;2.10;1.90;;;11.00;69.40;;;;;;5052077;28;20209;-64
2021/03/20 08:01:56;;;;;;;2.10;1.90;;;11.10;65.40;;;;;;5051768;28;20316;-65
2021/03/20 08:04:48;;;;;;;4.27;2.10;;;10.50;64.10;;;;;;5051628;28;20241;-64
2021/03/20 08:07:33;;;;;;;2.17;1.97;;;9.70;66.50;;;;;;5052045;28;20712;-64
2021/03/20 08:10:21;;;;;;;4.50;2.40;;;8.60;70.50;;;;;;5051782;28;20403;-61
2021/03/20 08:12:56;;;;;;;4.73;2.20;;;7.70;71.50;;;;;;5049350;28;20308;-62
2021/03/20 08:15:26;;;;;;;3.40;2.53;;;6.70;75.80;;;;;;5051923;28;20225;-62
2021/03/20 08:17:53;;;;;;;3.00;2.53;;;5.90;78.50;;;;;;5051742;28;20205;-63
2021/03/20 08:20:19;;;;;;;5.30;2.80;;;5.30;81.00;;;;;;5051922;28;20220;-63
2021/03/20 08:23:04;;;;;;;2.90;2.50;;;5.10;82.30;;;;;;5051712;28;20232;-62
2021/03/20 08:25:43;;;;;;;4.13;2.67;;;5.20;83.00;;;;;;5051728;28;20221;-63
2021/03/20 08:28:50;;;;;;;6.20;2.70;;;5.20;83.20;;;;;;5051484;28;20221;-63
2021/03/20 08:31:47;;;;;;;7.53;5.03;;;4.90;81.50;;;;;;5051599;28;20665;-63
2021/03/20 08:34:30;;;;;;;5.10;2.60;;;4.60;79.70;;;;;;5051578;28;20222;-63
2021/03/20 08:37:13;;;;;;;3.33;2.17;;;4.40;80.60;;;;;;5051768;28;20233;-63
2021/03/20 08:39:54;;;;;;;3.83;2.17;;;4.20;81.30;;;;;;5052514;28;20214;-62
2021/03/20 08:42:33;;;;;;;3.60;2.67;;;4.20;82.00;;;;;;5053707;28;20591;-62
2021/03/20 08:45:17;;;;;;;2.90;2.40;;;4.40;80.80;;;;;;5053528;28;20251;-63
2021/03/20 08:47:55;;;;;;;4.17;2.70;;;4.40;79.70;;;;;;5052493;28;20212;-62
2021/03/20 08:50:30;;;;;;;5.73;2.13;;;4.30;79.00;;;;;;5053242;28;20208;-62
2021/03/20 08:53:02;;;;;;;5.57;2.27;;;4.30;77.40;;;;;;5053017;28;20197;-62
2021/03/20 08:56:01;;;;;;;4.03;1.83;;;4.10;75.90;;;;;;5052190;28;20226;-62
2021/03/20 08:58:38;;;;;;;2.80;2.20;;;4.00;73.30;;;;;;5051330;28;20208;-61
2021/03/20 09:01:13;;;;;;;3.87;1.97;;;3.90;73.40;;;;;;5051302;28;20213;-64
2021/03/20 09:03:43;;;;;;;2.60;1.93;;;3.90;71.60;;;;;;5051319;28;20205;-66
2021/03/20 09:06:18;;;;;;;3.80;2.10;;;3.70;72.40;;;;;;5052455;28;20239;-55
2021/03/20 09:08:45;;;;;;;3.23;1.90;;;3.90;75.30;;;;;;5051003;28;20205;-57
2021/03/20 09:11:30;;;;;;;2.23;1.80;;;4.10;78.60;;;;;;5050738;28;20201;-57
2021/03/20 09:14:02;;;;;;;3.13;2.23;;;4.40;71.60;;;;;;5050546;28;20226;-57
2021/03/20 09:16:33;;;;;;;1.87;1.57;;;4.70;73.80;;;;;;5050890;28;20244;-57
2021/03/20 09:19:02;;;;;;;4.40;2.40;;;4.90;70.40;;;;;;5050640;28;20205;-57
2021/03/20 09:21:29;;;;;;;2.27;2.00;;;5.10;70.00;;;;;;5050776;28;20225;-57
2021/03/20 09:23:56;;;;;;;3.43;2.47;;;5.20;70.10;;;;;;5050219;28;20640;-57
2021/03/20 09:26:42;;;;;;;2.20;1.80;;;5.30;69.20;;;;;;5051326;28;20206;-59
2021/03/20 09:29:12;;;;;;;1.67;1.50;;;5.40;69.00;;;;;;5050759;28;20212;-60
2021/03/20 09:32:04;;;;;;;2.20;1.80;;;5.50;65.80;;;;;;5051118;28;20247;-60
2021/03/20 09:34:40;;;;;;;2.73;2.10;;;5.40;65.90;;;;;;5050765;28;20240;-60
2021/03/20 09:37:25;;;;;;;1.87;1.50;;;5.00;65.40;;;;;;5051135;28;20614;-62
2021/03/20 09:39:53;;;;;;;3.23;1.53;;;4.80;65.60;;;;;;5050126;28;20248;-60
2021/03/20 09:42:32;;;;;;;1.27;1.17;;;4.50;63.40;;;;;;5050580;28;20804;-60
2021/03/20 09:45:02;;;;;;;2.30;1.40;;;4.30;64.40;;;;;;5050513;28;20229;-61
2021/03/20 09:47:46;;;;;;;2.40;1.37;;;4.30;63.20;;;;;;5050608;28;20213;-62
2021/03/20 09:50:35;;;;;;;2.50;1.80;;;4.50;63.20;;;;;;5053575;28;20283;-60
2021/03/20 09:53:31;;;;;;;1.87;1.30;;;4.70;60.50;;;;;;5054299;28;20267;-61
2021/03/20 09:56:28;;;;;;;2.67;1.90;;;4.70;60.20;;;;;;5054662;28;20221;-62
2021/03/20 09:58:58;;;;;;;3.47;1.70;;;5.00;61.20;;;;;;5054513;28;20215;-62
2021/03/20 10:01:47;;;;;;;3.77;1.87;;;5.30;60.80;;;;;;5054437;28;20226;-63
2021/03/20 10:04:33;;;;;;;2.97;1.87;;;5.60;59.90;;;;;;5054009;28;20310;-62
2021/03/20 10:07:31;;;;;;;2.10;1.47;;;5.70;60.80;;;;;;5053824;28;20774;-62
2021/03/20 10:10:02;;;;;;;2.13;1.53;;;5.80;60.10;;;;;;5051840;28;20212;-61
2021/03/20 10:12:35;;;;;;;3.07;1.50;;;5.90;59.50;;;;;;5054116;28;20205;-62
2021/03/20 10:15:28;;;;;;;3.90;2.20;;;6.10;59.70;;;;;;5053902;28;20236;-61
2021/03/20 10:18:21;;;;;;;4.93;1.47;;;6.40;57.70;;;;;;5053522;28;20275;-62
2021/03/20 10:21:02;;;;;;;3.50;1.60;;;6.40;59.10;;;;;;5053857;28;20301;-62
2021/03/20 10:23:41;;;;;;;3.47;1.73;;;6.10;59.90;;;;;;5053794;28;20259;-61
2021/03/20 10:26:19;;;;;;;2.77;1.70;;;5.90;58.70;;;;;;5053483;28;20263;-62
2021/03/20 10:28:50;;;;;;;2.17;1.47;;;5.80;59.30;;;;;;5053334;28;20662;-62
2021/03/20 10:31:17;;;;;;;2.23;1.67;;;5.60;59.30;;;;;;5053716;28;20206;-62
2021/03/20 10:33:45;;;;;;;3.07;2.00;;;5.70;58.50;;;;;;5053435;28;20244;-63
2021/03/20 10:36:25;;;;;;;3.50;2.03;;;5.90;58.40;;;;;;5053420;28;20609;-63
2021/03/20 10:38:52;;;;;;;3.13;1.90;;;5.90;59.10;;;;;;5053055;28;20210;-64
2021/03/20 10:41:23;;;;;;;9.67;4.87;;;5.80;59.50;;;;;;5053650;28;20229;-62
2021/03/20 10:43:53;;;;;;;2.20;1.70;;;5.80;60.10;;;;;;5053434;28;20392;-60
2021/03/20 10:46:22;;;;;;;2.77;1.90;;;5.70;61.30;;;;;;5053552;28;20500;-61
2021/03/20 10:48:50;;;;;;;4.97;2.00;;;5.60;60.20;;;;;;5052980;28;20224;-62
2021/03/20 10:51:17;;;;;;;2.53;1.80;;;5.50;59.80;;;;;;5053066;28;20281;-61
2021/03/20 10:53:46;;;;;;;2.33;1.67;;;5.50;60.60;;;;;;5053097;28;20212;-62
2021/03/20 10:56:27;;;;;;;3.63;1.60;;;5.60;59.70;;;;;;5053173;28;20229;-62
2021/03/20 10:58:55;;;;;;;3.00;1.93;;;5.80;59.20;;;;;;5052869;28;20210;-62
2021/03/20 11:01:32;;;;;;;2.63;1.80;;;5.80;59.40;;;;;;5051748;28;20221;-62
2021/03/20 11:03:58;;;;;;;3.30;2.07;;;5.90;59.30;;;;;;5052764;28;20237;-63
2021/03/20 11:06:26;;;;;;;5.07;3.10;;;5.80;59.40;;;;;;5053713;28;20452;-60
2021/03/20 11:09:10;;;;;;;3.77;2.97;;;5.60;59.50;;;;;;5053631;28;20260;-62
2021/03/20 11:11:39;;;;;;;2.87;1.97;;;5.50;60.90;;;;;;5053179;28;20206;-62
2021/03/20 11:14:08;;;;;;;4.40;3.10;;;5.50;60.00;;;;;;5052566;28;20231;-61
2021/03/20 11:16:44;;;;;;;2.97;1.90;;;5.50;59.80;;;;;;5052835;28;20206;-62
2021/03/20 11:19:21;;;;;;;3.57;2.07;;;5.50;59.40;;;;;;5052694;28;20247;-61
2021/03/20 11:21:49;;;;;;;3.33;2.00;;;5.60;59.70;;;;;;5052442;28;20693;-62
2021/03/20 11:24:23;;;;;;;4.07;2.03;;;5.90;59.70;;;;;;5052198;28;20229;-61
2021/03/20 11:26:51;;;;;;;2.53;1.90;;;6.10;58.90;;;;;;5052433;28;20212;-61
2021/03/20 11:29:20;;;;;;;4.30;1.93;;;6.10;58.60;;;;;;5052251;28;20209;-60
2021/03/20 11:31:53;;;;;;;3.37;1.90;;;6.10;59.10;;;;;;5052878;28;20212;-61
2021/03/20 11:34:27;;;;;;;2.20;1.50;;;6.20;58.30;;;;;;5052236;28;20229;-61
2021/03/20 11:36:55;;;;;;;2.33;1.80;;;6.20;57.30;;;;;;5052324;28;20206;-60
2021/03/20 11:39:22;;;;;;;3.00;1.70;;;6.20;55.70;;;;;;5052315;28;20213;-61
2021/03/20 11:41:55;;;;;;;2.47;1.70;;;6.10;55.70;;;;;;5052309;28;20225;-61
2021/03/20 11:44:25;;;;;;;2.13;1.60;;;6.00;55.50;;;;;;5051954;28;20230;-61
2021/03/20 11:46:55;;;;;;;3.80;2.00;;;6.00;56.20;;;;;;5051987;28;20212;-60
2021/03/20 11:49:32;;;;;;;1.90;1.70;;;6.10;57.00;;;;;;5051939;28;20201;-62
2021/03/20 11:51:58;;;;;;;2.53;1.90;;;6.40;56.70;;;;;;5051945;28;20194;-62
2021/03/20 11:54:38;;;;;;;4.20;1.57;;;6.80;55.40;;;;;;5052350;28;20226;-62
2021/03/20 11:57:14;;;;;;;1.80;1.60;;;6.90;55.20;;;;;;5052115;28;20201;-62
2021/03/20 11:59:43;;;;;;;1.97;1.57;;;6.90;54.20;;;;;;5052004;28;20620;-62
2021/03/20 12:02:12;;;;;;;1.90;1.70;;;7.00;54.90;;;;;;5051849;28;20229;-59
2021/03/20 12:04:39;;;;;;;4.37;2.00;;;6.80;56.50;;;;;;5051936;28;20687;-62
2021/03/20 12:07:24;;;;;;;5.13;2.00;;;6.80;55.40;;;;;;5052201;28;20281;-62
2021/03/20 12:09:52;;;;;;;2.67;1.90;;;7.10;55.60;;;;;;5051641;28;20233;-64
2021/03/20 12:12:19;;;;;;;3.67;1.70;;;7.10;55.30;;;;;;5051779;28;20673;-59
2021/03/20 12:14:50;;;;;;;3.90;2.50;;;7.20;54.90;;;;;;5051334;28;20279;-59
2021/03/20 12:17:22;;;;;;;3.33;1.90;;;7.40;54.00;;;;;;5051773;28;20304;-59
2021/03/20 12:20:06;;;;;;;2.57;1.90;;;7.50;53.80;;;;;;5051554;28;20674;-59
2021/03/20 12:22:44;;;;;;;2.47;2.10;;;7.60;54.30;;;;;;5051578;28;20225;-59
2021/03/20 12:25:33;;;;;;;2.90;1.80;;;7.30;55.10;;;;;;5051090;28;20378;-58
2021/03/20 12:28:20;;;;;;;2.13;1.80;;;7.30;54.70;;;;;;5051427;28;20241;-59
2021/03/20 12:31:01;;;;;;;2.90;1.67;;;7.40;54.30;;;;;;5051560;28;20259;-59
2021/03/20 12:33:28;;;;;;;2.50;1.90;;;7.30;54.40;;;;;;5051394;28;20210;-59
2021/03/20 12:35:54;;;;;;;3.20;2.17;;;7.30;54.20;;;;;;5051291;28;20205;-59
2021/03/20 12:38:22;;;;;;;2.30;2.10;;;7.40;54.10;;;;;;5051168;28;20220;-59
2021/03/20 12:40:54;;;;;;;3.60;1.90;;;7.60;54.70;;;;;;5051375;28;20208;-59
2021/03/20 12:43:25;;;;;;;2.73;2.00;;;7.90;54.80;;;;;;5051712;28;20236;-59
2021/03/20 12:45:53;;;;;;;2.07;1.77;;;8.00;54.80;;;;;;5051270;28;20233;-59
2021/03/20 12:48:21;;;;;;;2.23;1.60;;;7.90;53.80;;;;;;5051200;28;20681;-59
2021/03/20 12:50:47;;;;;;;3.67;2.10;;;7.70;54.10;;;;;;5051345;28;20213;-58
2021/03/20 12:53:13;;;;;;;1.93;1.73;;;7.40;53.30;;;;;;5051234;28;20259;-59
2021/03/20 12:55:40;;;;;;;2.33;1.90;;;7.30;54.60;;;;;;5050654;28;20221;-58
2021/03/20 12:58:06;;;;;;;4.10;2.60;;;7.10;54.40;;;;;;5050836;28;20206;-59
2021/03/20 13:00:32;;;;;;;2.93;1.80;;;7.00;54.50;;;;;;5051129;28;20217;-58
2021/03/20 13:03:00;;;;;;;3.83;1.97;;;6.90;54.00;;;;;;5051229;28;20225;-59
2021/03/20 13:05:29;;;;;;;2.23;1.87;;;7.00;53.10;;;;;;5050969;28;20233;-59
2021/03/20 13:07:55;;;;;;;2.60;1.60;;;7.10;53.80;;;;;;5051305;28;20284;-58
2021/03/20 13:10:22;;;;;;;2.30;1.70;;;7.20;52.40;;;;;;5051183;28;20206;-59
2021/03/20 13:12:48;;;;;;;1.97;1.63;;;7.10;51.90;;;;;;5051073;28;20201;-59
2021/03/20 13:15:15;;;;;;;2.97;1.93;;;7.40;50.50;;;;;;5050990;28;20454;-59
2021/03/20 13:17:41;;;;;;;2.27;1.97;;;7.70;51.10;;;;;;5050805;28;20209;-59
2021/03/20 13:20:10;;;;;;;2.57;1.93;;;8.10;51.80;;;;;;5050910;28;20631;-58
2021/03/20 13:22:36;;;;;;;4.40;1.90;;;7.80;51.40;;;;;;5050869;28;20240;-58
2021/03/20 13:25:04;;;;;;;2.90;1.87;;;7.60;52.60;;;;;;5053023;28;20240;-59
2021/03/20 13:27:30;;;;;;;3.00;1.93;;;7.60;53.40;;;;;;5055086;28;20551;-58